Weather at Stronsay Airport

Public forecast

Using degrees Celsius for public forecast. Weather courtesy of forecast.io.

Closest aviation weather report (METAR) to Stronsay Airport

Closest report is Kirkwall Airport, 14.4 nm (26.6 km) SW.

2024/07/24 14:20 (retrieved 33 minutes ago)

EGPA 241420Z 14014KT 9999 FEW006 BKN009 15/13 Q1014

Closest aviation forecast (TAF) to Stronsay Airport

Closest forecast is RAF Lossiemouth, 89.8 nm (166.3 km) SSW.

2024/07/24 15:18 (retrieved 0 seconds ago)

TAF EGQS 241311Z 2415/2509 08010KT 9999 FEW045 PROB30 TEMPO 2501/2505 SCT022